Impacts TAF Board
For situational awareness. Not to be used for flight planning purposes.
IDs:

KJFK - New York/Kennedy Int, NY, US

Issued at 0227 UTC 03 Jul 2022
Updated at 0515 UTC 03 Jul 2022
Potential Impact None Slight Moderate High
Time0451Z 03/06Z 03/07Z 03/08Z 03/09Z 03/10Z 03/11Z 03/12Z 03/13Z 03/14Z 03/15Z 03/16Z 03/17Z 03/18Z>>
Type OBS PRVL PRVL PRVL PRVL PRVL PRVL PRVL PRVL PRVL PRVL PRVL PRVL PRVL
VIS 10 >6 >6 >6 >6 >6 >6 >6 >6 >6 >6 >6 >6 >6
CIG 250 40 40 40 40 40 40 40 50 50 50 50 50 50
Cover BKN BKN BKN BKN BKN BKN BKN BKN BKN BKN BKN BKN BKN BKN
FltCat VFR VFR VFR VFR VFR VFR VFR VFR VFR VFR VFR VFR VFR VFR
WX -- -- -- -- -- -- -- -- -- -- -- -- -- --
WDir 260 280 280 280 280 280 280 280 330 330 330 330 330 330
WSpd 7 7 7 7 7 7 7 7 10 10 10 10 10 10
WGst -- -- -- -- -- -- -- -- -- -- -- -- -- --
WSHgt -- -- -- -- -- -- -- -- -- -- -- -- -- --
WSDir -- -- -- -- -- -- -- -- -- -- -- -- -- --
WSSpd -- -- -- -- -- -- -- -- -- -- -- -- -- --
Raw TAF
KJFK 030227Z 0302/0406 20003KT P6SM FEW070 BKN250
  FM030600 28007KT P6SM BKN040 BKN100
  FM031300 33010KT P6SM BKN050 BKN250
  FM031900 18009KT P6SM SCT050 SCT250
  FM040300 33008KT P6SM FEW250


Raw METAR
KJFK 030451Z 26007KT 10SM SCT055 BKN250 26/21 A2994 RMK AO2 SLP140 T02610211 403060228
KJFK 030351Z 24010KT 10SM FEW046 SCT060 BKN250 25/22 A2994 RMK AO2 SLP137 T02500222
KJFK 030251Z 15003KT 10SM BKN055 BKN250 24/21 A2993 RMK AO2 SLP135 T02390211 52009

METAR Board
Radar Display
Forecast Discussion
For situational awareness. Not to be used for flight planning purposes.